Historyczne dane pomiarowe

Dodano dane terminowe – wersja testowa.

Dane z okresu 1951-2019

Wersja bazy: 1.34 [2019-03-16, lista zmian], aktualizacja planowana na 2019-04-15

Dane meteo z obszaru Polski uzyskane na podstawie danych udostępnionych przez Instytut Meteorologii i Gospodarki Wodnej – Państwowy Instytut Badawczy.

 

Wybierz Datę:    

       

TemperaturaWilgotnośćWiatrCiśnienieOpadyŚniegCzas trwania zjawisk
 Stacja t tx tn tng RH VA  wxwx mslp ppp RRR   cm mm wxwxwxwxwxwxwx
1994-10-10 6.1 12.0 3.5 0.0 81.8- 5.3 3.3---- 0.0------------
1994-10-09 2.5 9.5 -2.0 -4.0 85.8- 5.3 1.7---- 0.0------------
1994-10-08 6.5 11.1 4.5 3.9 80.3- 4.0 4.0---- 0.0------------
1994-10-07 3.8 11.5 -2.6 -4.0 77.5- 4.3 2.0---- 0.7------------
1994-10-06 3.4 11.0 -1.4 -4.0 83.0- 3.7 0.3---- 0.0------------
1994-10-05 4.1 8.4 2.6 0.0 92.5- 5.3 5.0---- 3.6------------
1994-10-04 6.4 13.3 4.1 3.2 76.8- 4.3 5.7---- 0.0------------
1994-10-03 12.7 17.4 8.5 4.1 91.5- 6.7 6.3---- 10.5------------
1994-10-02 7.2 12.0 2.0 0.0 91.8- 4.7 0.7---- 0.1------------
1994-10-01 10.6 16.9 4.5 2.0 83.8- 6.3 4.0---- 0.0------------
1994-09-30 13.6 16.7 10.8 9.8 79.3- 6.3 3.0---- 0.0------------
1994-09-29 13.2 18.9 6.6 2.5 77.5- 5.7 4.7---- 0.0------------
1994-09-28 12.3 16.7 9.1 7.9 72.5- 2.3 2.3---- 0.0------------
1994-09-27 14.2 19.2 11.0 7.9 86.3- 5.7 3.0---- 0.0------------
1994-09-26 15.2 23.6 8.5 7.4 80.0- 4.7 1.3---- 0.0------------
1994-09-25 16.1 21.7 9.6 7.9 90.8- 7.0 2.0---- 0.0------------
1994-09-24 14.1 21.9 7.0 5.5 84.5- 4.3 2.0---- 0.0------------
1994-09-23 11.5 16.5 6.9 3.9 87.3- 5.3 0.7---- 0.0------------
1994-09-22 13.2 16.4 11.6 9.3 84.8- 5.7 2.0---- 0.0------------
1994-09-21 11.6 12.8 10.5 10.0 91.5- 6.7 3.0---- 1.5------------
1994-09-20 10.2 14.9 5.5 3.9 90.0- 7.0 1.7---- 0.8------------
1994-09-19 10.7 15.9 8.0 4.9 92.5- 6.3 1.7---- 0.0------------
1994-09-18 11.8 15.9 8.5 5.4 76.8- 5.3 5.3---- 0.0------------
1994-09-17 12.4 17.1 9.5 5.9 72.8- 4.3 8.0---- 0.0------------
1994-09-16 13.9 18.3 11.5 7.5 65.8- 4.7 8.0---- 0.0------------
1994-09-15 17.8 20.5 14.0 12.8 76.3- 4.3 8.7---- 0.0------------
1994-09-14 16.8 20.5 14.2 12.8 91.5- 6.3 3.0---- 0.7------------
1994-09-13 17.9 21.5 15.1 10.3 87.8- 6.0 2.0---- 1.8------------
1994-09-12 16.1 23.2 8.5 5.5 81.8- 4.0 4.7---- 0.0------------
1994-09-11 12.7 18.1 9.6 5.6 83.8- 5.7 6.0---- 0.9------------
1994-09-10 15.0 21.7 8.9 5.4 75.5- 5.3 8.0---- 5.7------------
1994-09-09 16.1 20.1 11.8 11.6 74.3- 4.0 7.3---- 0.0------------
1994-09-08 16.9 21.9 13.1 11.8 87.3- 6.0 1.7---- 0.0------------
1994-09-07 13.6 16.3 11.8 9.2 88.5- 7.0 3.7---- 0.0------------
1994-09-06 14.9 19.4 12.0 9.3 80.3- 5.0 4.0---- 3.8------------
1994-09-05 16.5 21.1 13.1 8.1 82.3- 7.3 3.3---- 6.2------------
1994-09-04 15.9 22.2 11.3 7.3 78.5- 3.0 3.7---- 0.0------------
1994-09-03 16.0 20.5 15.0 14.6 88.5- 6.7 2.7---- 0.8------------
1994-09-02 18.3 22.0 15.1 12.8 90.0- 7.7 1.7---- 13.0------------
1994-09-01 17.1 19.5 14.7 10.0 86.5- 7.3 3.3---- 14.1------------
1994-08-31 17.5 23.5 12.0 8.9 75.0- 2.7 2.7---- 0.0------------
1994-08-30 15.7 20.5 9.3 5.9 69.5- 5.0 3.0---- 0.0------------
1994-08-29 15.5 21.1 10.0 6.9 73.0- 4.7 4.7---- 0.0------------
1994-08-28 18.7 25.1 15.5 12.8 80.5- 5.7 4.0---- 5.3------------
1994-08-27 18.4 24.1 10.5 8.3 83.5- 4.3 2.7---- 0.0------------
1994-08-26 16.4 20.1 15.1 12.8 93.0- 6.7 1.7---- 1.1------------
1994-08-25 18.7 22.5 14.6 11.8 76.3- 6.7 2.0---- 0.0------------
1994-08-24 16.3 23.3 9.9 7.1 83.8- 7.0 2.3---- 0.4------------
1994-08-23 16.2 23.1 9.1 5.9 74.8- 3.0 3.0---- 0.0------------
1994-08-22 17.7 23.9 10.2 9.8 72.0- 2.3 1.0---- 0.0------------
1994-08-21 16.1 22.4 10.0 6.9 77.3- 6.0 1.0---- 0.0------------
1994-08-20 15.8 20.1 14.5 12.3 81.5- 4.7 4.0---- 0.0------------
1994-08-19 12.6 14.5 11.0 10.3 94.3- 7.0 5.3---- 9.0------------
1994-08-18 15.5 21.4 13.9 11.0 83.0- 5.7 6.7---- 17.2------------
1994-08-17 16.7 26.4 7.5 4.8 70.3- 3.0 2.7---- 3.0------------
1994-08-16 16.0 20.3 12.6 10.8 70.8- 4.7 3.0---- 0.0------------
1994-08-15 13.0 16.4 11.0 7.9 85.3- 7.0 5.7---- 0.6------------
1994-08-14 13.4 16.9 10.5 8.2 75.3- 5.7 4.0---- 1.3------------
1994-08-13 15.4 16.8 13.4 13.8 93.0- 5.0 4.3---- 7.8------------
1994-08-12 18.2 23.5 15.5 13.8 86.0- 5.0 1.7---- 2.7------------
596.2 ms

 

Źródłem pochodzenia danych jest Instytut Meteorologii i Gospodarki Wodnej – Państwowy Instytut Badawczy. Dane Instytutu Meteorologii i Gospodarki Wodnej – Państwowego Instytutu Badawczego zostały przetworzone.

Dane źródłowe można odnaleźć na stronie https://dane.imgw.pl